createdAt,value
2023-03-17T00:01:39.812Z,66.99
2023-03-17T00:04:11.704Z,67.16
2023-03-17T00:06:40.357Z,67.58
2023-03-17T00:09:15.903Z,67.88
2023-03-17T00:11:44.429Z,67.64
2023-03-17T00:14:12.341Z,67.50
2023-03-17T00:16:43.015Z,67.42
2023-03-17T00:19:17.204Z,67.71
2023-03-17T00:21:48.249Z,67.58
2023-03-17T00:24:16.132Z,67.25
2023-03-17T00:26:43.917Z,67.67
2023-03-17T00:29:12.033Z,67.65
2023-03-17T00:31:39.804Z,68.28
2023-03-17T00:34:12.258Z,68.02
2023-03-17T00:36:40.858Z,68.21
2023-03-17T00:41:40.827Z,68.04
2023-03-17T00:44:08.389Z,67.95
2023-03-17T00:46:38.167Z,67.72
2023-03-17T00:49:20.686Z,67.83
2023-03-17T00:51:49.792Z,67.72
2023-03-17T00:54:19.606Z,68.14
2023-03-17T00:56:48.604Z,68.11
2023-03-17T00:59:30.725Z,68.29
2023-03-17T01:01:58.772Z,68.42
2023-03-17T01:04:26.480Z,68.73
2023-03-17T01:06:54.444Z,68.69
2023-03-17T01:09:26.405Z,68.81
2023-03-17T01:11:55.773Z,68.68
2023-03-17T01:14:25.000Z,68.77
2023-03-17T01:16:55.649Z,68.97
2023-03-17T01:19:23.781Z,69.50
2023-03-17T01:21:52.351Z,69.44
2023-03-17T01:24:19.970Z,69.50
2023-03-17T01:26:47.470Z,69.30
2023-03-17T01:29:16.652Z,69.47
2023-03-17T01:31:46.281Z,69.36
2023-03-17T01:34:13.920Z,69.52
2023-03-17T01:36:43.320Z,69.46
2023-03-17T01:39:11.177Z,69.26
2023-03-17T01:41:40.313Z,69.24
2023-03-17T01:44:15.775Z,70.43
2023-03-17T01:46:44.116Z,70.69
2023-03-17T01:49:12.761Z,70.89
2023-03-17T01:51:52.696Z,71.18
2023-03-17T01:54:29.787Z,71.25
2023-03-17T01:57:04.383Z,72.23
2023-03-17T01:59:35.910Z,71.91
2023-03-17T02:02:09.426Z,71.60
2023-03-17T02:04:39.124Z,71.00
2023-03-17T02:07:07.016Z,71.06
2023-03-17T02:09:35.011Z,70.86
2023-03-17T02:12:03.175Z,70.83
2023-03-17T02:14:30.829Z,70.98
2023-03-17T02:16:58.911Z,71.13
2023-03-17T02:19:26.795Z,71.28
2023-03-17T02:21:55.964Z,71.03
2023-03-17T02:24:26.814Z,70.71
2023-03-17T02:26:56.172Z,71.24
2023-03-17T02:29:24.389Z,72.22
2023-03-17T02:31:52.277Z,71.88
2023-03-17T02:34:21.959Z,71.67
2023-03-17T02:36:49.960Z,71.41
2023-03-17T02:39:17.858Z,71.32
2023-03-17T02:41:46.169Z,71.36
2023-03-17T02:44:14.641Z,71.58
2023-03-17T02:46:42.598Z,71.33
2023-03-17T02:49:11.891Z,71.43
2023-03-17T02:51:40.017Z,71.43
2023-03-17T02:54:07.934Z,71.51
2023-03-17T02:56:35.925Z,71.52
2023-03-17T02:59:04.475Z,71.42
2023-03-17T03:01:32.273Z,71.19
2023-03-17T03:03:59.955Z,71.04
2023-03-17T03:06:27.901Z,71.62
2023-03-17T03:08:55.476Z,71.04
2023-03-17T03:11:23.417Z,71.13
2023-03-17T03:13:51.305Z,71.12
2023-03-17T03:16:18.913Z,71.04
2023-03-17T03:18:46.541Z,71.05
2023-03-17T03:21:14.489Z,71.23
2023-03-17T03:23:43.348Z,71.65
2023-03-17T03:26:10.862Z,72.09
2023-03-17T03:28:38.698Z,71.85
2023-03-17T03:31:06.783Z,71.53
2023-03-17T03:33:34.759Z,71.65
2023-03-17T03:36:03.063Z,71.69
2023-03-17T03:38:30.804Z,71.93
2023-03-17T03:40:58.394Z,72.11
2023-03-17T03:43:26.296Z,72.03
2023-03-17T03:45:54.691Z,71.87
2023-03-17T03:48:22.850Z,71.84
2023-03-17T03:50:50.751Z,71.94
2023-03-17T03:53:18.519Z,72.17
2023-03-17T03:55:46.086Z,72.24
2023-03-17T03:58:14.084Z,71.79
2023-03-17T04:00:41.638Z,71.77
2023-03-17T04:03:09.607Z,71.77
2023-03-17T04:05:37.249Z,71.44
2023-03-17T04:08:05.342Z,71.23
2023-03-17T04:10:33.793Z,71.51
2023-03-17T04:13:01.407Z,71.91
2023-03-17T04:15:29.302Z,73.06
2023-03-17T04:17:57.175Z,72.43
2023-03-17T04:20:24.794Z,72.17
2023-03-17T04:22:52.474Z,72.29
2023-03-17T04:25:20.383Z,73.00
2023-03-17T04:27:48.157Z,74.26
2023-03-17T04:30:17.042Z,76.27
2023-03-17T04:32:46.402Z,75.28
2023-03-17T04:35:17.467Z,75.61
2023-03-17T04:37:45.661Z,76.70
2023-03-17T04:40:14.499Z,77.47
2023-03-17T04:42:42.227Z,77.08
2023-03-17T04:45:12.653Z,77.38
2023-03-17T04:47:40.531Z,76.33
2023-03-17T04:50:09.020Z,75.97
2023-03-17T04:52:37.512Z,76.29
2023-03-17T04:55:06.867Z,75.38
2023-03-17T04:57:34.896Z,75.60
2023-03-17T05:00:05.104Z,75.74
2023-03-17T05:02:33.054Z,74.91
2023-03-17T05:05:01.185Z,74.62
2023-03-17T05:07:29.178Z,74.65
2023-03-17T05:09:57.798Z,75.23
2023-03-17T05:12:25.461Z,75.47
2023-03-17T05:14:53.309Z,75.38
2023-03-17T05:17:20.854Z,75.70
2023-03-17T05:19:48.365Z,75.21
2023-03-17T05:22:16.692Z,74.77
2023-03-17T05:24:44.763Z,74.47
2023-03-17T05:27:12.288Z,74.47
2023-03-17T05:29:40.289Z,74.38
2023-03-17T05:32:07.802Z,73.95
2023-03-17T05:34:35.352Z,73.52
2023-03-17T05:37:03.423Z,73.39
2023-03-17T05:39:30.958Z,73.21
2023-03-17T05:41:58.541Z,73.46
2023-03-17T05:44:26.325Z,73.65
2023-03-17T05:46:55.291Z,73.37
2023-03-17T05:49:22.928Z,73.12
2023-03-17T05:51:51.200Z,72.73
2023-03-17T05:54:18.847Z,72.63
2023-03-17T05:56:46.756Z,72.46
2023-03-17T05:59:16.761Z,72.20
2023-03-17T06:01:44.582Z,71.65
2023-03-17T06:04:12.801Z,71.56
2023-03-17T06:06:40.421Z,71.57
2023-03-17T06:09:08.500Z,71.85
2023-03-17T06:11:36.999Z,71.16
2023-03-17T06:14:04.562Z,71.37
2023-03-17T06:16:33.284Z,70.78
2023-03-17T06:19:01.546Z,70.82
2023-03-17T06:21:29.179Z,71.08
2023-03-17T06:23:56.772Z,71.17
2023-03-17T06:26:24.707Z,70.44
2023-03-17T06:28:52.185Z,69.50
2023-03-17T06:31:20.378Z,69.67
2023-03-17T06:33:48.555Z,69.37
2023-03-17T06:36:17.022Z,69.80
2023-03-17T06:38:46.124Z,69.98
2023-03-17T06:41:13.875Z,70.83
2023-03-17T06:43:42.090Z,70.29
2023-03-17T06:46:09.933Z,69.67
2023-03-17T06:48:38.421Z,69.29
2023-03-17T06:51:06.352Z,69.48
2023-03-17T06:53:33.984Z,68.75
2023-03-17T06:56:02.262Z,68.86
2023-03-17T06:58:30.720Z,69.51
2023-03-17T07:00:59.857Z,68.87
2023-03-17T07:03:27.920Z,68.72
2023-03-17T07:05:55.522Z,69.01
2023-03-17T07:08:23.238Z,69.74
2023-03-17T07:10:55.980Z,68.84
2023-03-17T07:13:24.578Z,67.28
2023-03-17T07:15:55.229Z,67.66
2023-03-17T07:18:23.769Z,67.54
2023-03-17T07:20:51.361Z,67.32
2023-03-17T07:23:21.754Z,66.44
2023-03-17T07:25:50.332Z,66.44
2023-03-17T07:28:19.242Z,65.80
2023-03-17T07:30:48.564Z,65.04
2023-03-17T07:33:17.830Z,65.26
2023-03-17T07:35:45.429Z,64.60
2023-03-17T07:38:13.275Z,64.37
2023-03-17T07:40:41.377Z,65.48
2023-03-17T07:43:09.562Z,64.92
2023-03-17T07:45:38.288Z,66.71
2023-03-17T07:48:06.815Z,65.99
2023-03-17T07:50:35.603Z,61.98
2023-03-17T07:53:03.957Z,62.00
2023-03-17T07:55:32.683Z,62.83
2023-03-17T07:58:00.906Z,60.66
2023-03-17T08:00:29.185Z,57.40
2023-03-17T08:03:09.307Z,55.79
2023-03-17T08:05:38.076Z,56.86
2023-03-17T08:08:06.818Z,55.33
2023-03-17T08:10:35.039Z,55.74
2023-03-17T08:13:03.000Z,55.08
2023-03-17T08:15:31.394Z,55.11
2023-03-17T08:18:01.403Z,54.12
2023-03-17T08:20:30.465Z,52.77
2023-03-17T08:23:00.927Z,51.35
2023-03-17T08:25:28.856Z,51.66
2023-03-17T08:27:56.363Z,49.99
2023-03-17T08:30:24.228Z,49.42
2023-03-17T08:32:54.028Z,49.50
2023-03-17T08:35:21.553Z,50.67
2023-03-17T08:37:49.405Z,48.98
2023-03-17T08:40:19.745Z,48.76
2023-03-17T08:42:48.659Z,47.90
2023-03-17T08:45:19.026Z,46.77
2023-03-17T08:47:48.460Z,48.22
2023-03-17T08:50:21.047Z,50.36
2023-03-17T08:52:49.138Z,47.80
2023-03-17T08:55:17.421Z,45.68
2023-03-17T08:57:46.223Z,44.04
2023-03-17T09:00:16.138Z,44.85
2023-03-17T09:02:45.002Z,44.02
2023-03-17T09:05:15.209Z,44.56
2023-03-17T09:07:43.566Z,44.53
2023-03-17T09:10:13.712Z,42.56
2023-03-17T09:12:41.584Z,42.36
2023-03-17T09:15:10.272Z,42.94
2023-03-17T09:17:38.030Z,41.63
2023-03-17T09:20:06.605Z,43.58
2023-03-17T09:22:34.350Z,43.98
2023-03-17T09:25:02.254Z,41.78
2023-03-17T09:27:29.868Z,41.53
2023-03-17T09:29:58.004Z,41.88
2023-03-17T09:32:25.893Z,39.92
2023-03-17T09:34:53.964Z,40.56
2023-03-17T09:37:22.208Z,40.70
2023-03-17T09:39:50.311Z,41.38
2023-03-17T09:42:28.077Z,40.03
2023-03-17T09:45:02.830Z,39.33
2023-03-17T09:47:41.085Z,37.27
2023-03-17T09:50:18.526Z,39.41
2023-03-17T09:52:46.175Z,38.23
2023-03-17T09:55:23.184Z,39.24
2023-03-17T09:57:52.351Z,38.43
2023-03-17T10:00:26.739Z,39.55
2023-03-17T10:02:55.893Z,38.13
2023-03-17T10:05:26.826Z,38.65
2023-03-17T10:08:29.588Z,40.14
2023-03-17T10:11:20.496Z,37.20
2023-03-17T10:13:55.322Z,34.91
2023-03-17T10:16:29.804Z,34.69
2023-03-17T10:19:12.490Z,34.05
2023-03-17T10:21:48.581Z,35.58
2023-03-17T10:24:17.044Z,37.34
2023-03-17T10:26:47.008Z,36.28
2023-03-17T10:29:22.631Z,35.34
2023-03-17T10:31:52.155Z,34.22
2023-03-17T10:34:23.893Z,36.02
2023-03-17T10:37:02.000Z,34.24
2023-03-17T10:39:32.471Z,34.51
2023-03-17T10:42:11.688Z,34.15
2023-03-17T10:44:44.011Z,33.87
2023-03-17T10:47:32.278Z,33.08
2023-03-17T10:50:15.487Z,32.95
2023-03-17T10:52:44.638Z,33.76
2023-03-17T10:55:16.417Z,33.08
2023-03-17T10:57:55.317Z,32.22
2023-03-17T11:00:24.699Z,32.95
2023-03-17T11:02:57.989Z,34.01
2023-03-17T11:05:30.005Z,35.12
2023-03-17T11:08:07.197Z,33.56
2023-03-17T11:10:38.148Z,33.13
2023-03-17T11:13:21.294Z,32.17
2023-03-17T11:15:54.458Z,32.54
2023-03-17T11:18:25.505Z,31.94
2023-03-17T11:21:01.825Z,31.41
2023-03-17T11:23:43.077Z,30.48
2023-03-17T11:26:28.881Z,31.60
2023-03-17T11:29:16.747Z,31.27
2023-03-17T11:31:53.807Z,32.97
2023-03-17T11:34:48.552Z,31.91
2023-03-17T11:37:34.175Z,31.85
2023-03-17T11:40:12.127Z,31.93
2023-03-17T11:43:11.393Z,31.97
2023-03-17T11:45:54.310Z,32.72
2023-03-17T11:49:01.033Z,32.46
2023-03-17T11:51:37.531Z,31.71
2023-03-17T11:54:12.469Z,32.08
2023-03-17T11:56:43.130Z,31.52
2023-03-17T11:59:42.237Z,30.59
2023-03-17T12:02:31.660Z,32.27
2023-03-17T12:05:02.574Z,32.87
2023-03-17T12:07:35.685Z,32.69
2023-03-17T12:10:21.921Z,32.58
2023-03-17T12:13:03.097Z,32.02
2023-03-17T12:15:42.023Z,32.30
2023-03-17T12:18:21.721Z,31.57
2023-03-17T12:20:56.019Z,31.69
2023-03-17T12:23:33.135Z,30.38
2023-03-17T12:26:08.418Z,29.92
2023-03-17T12:28:42.054Z,32.60
2023-03-17T12:31:14.467Z,32.46
2023-03-17T12:34:02.802Z,32.08
2023-03-17T12:36:31.264Z,31.45
2023-03-17T12:38:59.241Z,31.69
2023-03-17T12:41:42.990Z,30.68
2023-03-17T12:44:24.306Z,29.64
2023-03-17T12:47:32.743Z,29.43
2023-03-17T12:50:04.639Z,30.08
2023-03-17T12:52:38.554Z,29.28
2023-03-17T12:55:13.741Z,29.79
2023-03-17T12:57:43.951Z,29.04
2023-03-17T13:00:15.417Z,28.34
2023-03-17T13:02:46.210Z,28.34
2023-03-17T13:05:16.522Z,28.43
2023-03-17T13:08:13.951Z,28.81
2023-03-17T13:10:48.153Z,29.27
2023-03-17T13:13:41.688Z,28.72
2023-03-17T13:16:30.067Z,28.46
2023-03-17T13:19:24.575Z,28.40
2023-03-17T13:22:06.301Z,28.03
2023-03-17T13:24:51.989Z,27.39
2023-03-17T13:27:32.492Z,28.79
2023-03-17T13:30:22.876Z,28.35
2023-03-17T13:33:04.169Z,27.83
2023-03-17T13:35:53.961Z,27.95
2023-03-17T13:38:35.496Z,27.60
2023-03-17T13:41:03.140Z,27.44
2023-03-17T13:43:52.255Z,27.34
2023-03-17T13:46:24.476Z,27.86
2023-03-17T13:48:54.772Z,27.74
2023-03-17T13:51:27.573Z,27.96
2023-03-17T13:53:59.185Z,28.41
2023-03-17T13:56:42.209Z,29.08
2023-03-17T13:59:18.256Z,29.53
2023-03-17T14:02:02.825Z,30.06
2023-03-17T14:05:13.269Z,29.34
2023-03-17T14:07:48.035Z,30.41
2023-03-17T14:10:21.925Z,31.84
2023-03-17T14:13:12.506Z,29.80
2023-03-17T14:16:05.806Z,30.58
2023-03-17T14:18:39.380Z,29.47
2023-03-17T14:21:18.492Z,29.22
2023-03-17T14:23:56.735Z,28.31
2023-03-17T14:26:25.761Z,28.58
2023-03-17T14:28:53.587Z,28.03
2023-03-17T14:31:24.558Z,27.94
2023-03-17T14:33:55.737Z,27.71
2023-03-17T14:36:23.952Z,27.75
2023-03-17T14:38:54.332Z,27.98
2023-03-17T14:41:30.350Z,27.32
2023-03-17T14:44:00.402Z,27.35
2023-03-17T14:46:32.232Z,27.55
2023-03-17T14:49:04.001Z,27.79
2023-03-17T14:51:39.112Z,28.95
2023-03-17T14:54:15.507Z,29.56
2023-03-17T14:56:50.943Z,28.36
2023-03-17T14:59:34.849Z,28.47
2023-03-17T15:02:16.592Z,29.94
2023-03-17T15:04:53.594Z,29.30
2023-03-17T15:07:41.271Z,29.29
2023-03-17T15:10:31.047Z,28.38
2023-03-17T15:13:04.094Z,28.11
2023-03-17T15:15:34.119Z,27.90
2023-03-17T15:18:10.340Z,27.82
2023-03-17T15:20:38.273Z,27.71
2023-03-17T15:23:17.135Z,27.53
2023-03-17T15:25:47.135Z,27.48
2023-03-17T15:28:17.277Z,27.29
2023-03-17T15:30:50.266Z,26.96
2023-03-17T15:33:21.985Z,27.72
2023-03-17T15:35:50.570Z,27.75
2023-03-17T15:38:18.914Z,27.94
2023-03-17T15:40:46.473Z,28.22
2023-03-17T15:43:15.668Z,28.43
2023-03-17T15:45:45.137Z,28.69
2023-03-17T15:48:19.526Z,28.75
2023-03-17T15:50:49.176Z,28.26
2023-03-17T15:53:17.038Z,28.93
2023-03-17T15:55:44.755Z,29.45
2023-03-17T15:58:12.985Z,29.97
2023-03-17T16:00:41.501Z,29.80
2023-03-17T16:03:29.367Z,29.71
2023-03-17T16:05:56.955Z,29.89
2023-03-17T16:08:24.945Z,30.15
2023-03-17T16:10:52.658Z,30.33
2023-03-17T16:13:20.309Z,30.52
2023-03-17T16:16:15.904Z,30.53
2023-03-17T16:18:43.926Z,30.76
2023-03-17T16:21:12.463Z,31.04
2023-03-17T16:23:40.702Z,31.34
2023-03-17T16:26:15.554Z,31.72
2023-03-17T16:28:46.345Z,32.05
2023-03-17T16:31:19.904Z,32.37
2023-03-17T16:33:48.303Z,32.66
2023-03-17T16:36:17.628Z,33.01
2023-03-17T16:38:45.899Z,33.33
2023-03-17T16:41:19.147Z,33.54
2023-03-17T16:43:51.264Z,33.60
2023-03-17T16:46:20.841Z,33.72
2023-03-17T16:48:49.808Z,34.07
2023-03-17T16:51:17.971Z,34.31
2023-03-17T16:53:45.965Z,34.57
2023-03-17T16:56:16.604Z,34.69
2023-03-17T16:58:45.132Z,34.99
2023-03-17T17:01:16.369Z,35.52
2023-03-17T17:03:44.733Z,37.22
2023-03-17T17:06:14.486Z,37.21
2023-03-17T17:08:43.833Z,37.47
2023-03-17T17:11:13.357Z,37.37
2023-03-17T17:13:42.637Z,37.32
2023-03-17T17:16:18.010Z,37.23
2023-03-17T17:18:47.346Z,37.24
2023-03-17T17:21:16.676Z,37.69
2023-03-17T17:23:46.180Z,38.00
2023-03-17T17:26:14.049Z,38.74
2023-03-17T17:28:42.803Z,38.71
2023-03-17T17:31:10.930Z,38.80
2023-03-17T17:33:38.800Z,39.04
2023-03-17T17:36:13.030Z,39.41
2023-03-17T17:38:42.067Z,39.68
2023-03-17T17:41:11.084Z,40.08
2023-03-17T17:43:39.114Z,40.49
2023-03-17T17:46:11.926Z,40.59
2023-03-17T17:48:39.896Z,40.63
2023-03-17T17:51:07.666Z,40.85
2023-03-17T17:53:35.235Z,41.12
2023-03-17T17:56:03.490Z,41.37
2023-03-17T17:58:32.556Z,41.67
2023-03-17T18:01:00.739Z,42.01
2023-03-17T18:03:31.538Z,42.15
2023-03-17T18:06:00.920Z,42.43
2023-03-17T18:08:29.150Z,42.67
2023-03-17T18:10:57.386Z,44.44
2023-03-17T18:13:25.738Z,44.18
2023-03-17T18:15:53.722Z,44.00
2023-03-17T18:18:21.732Z,44.51
2023-03-17T18:20:49.605Z,44.82
2023-03-17T18:23:17.771Z,45.28
2023-03-17T18:25:45.324Z,45.67
2023-03-17T18:28:13.341Z,45.98
2023-03-17T18:30:41.384Z,46.19
2023-03-17T18:33:14.244Z,46.45
2023-03-17T18:35:45.104Z,46.92
2023-03-17T18:38:13.285Z,47.25
2023-03-17T18:40:42.300Z,47.80
2023-03-17T18:43:10.891Z,48.41
2023-03-17T18:45:38.787Z,49.06
2023-03-17T18:48:07.194Z,50.05
2023-03-17T18:50:37.120Z,50.35
2023-03-17T18:53:05.434Z,50.77
2023-03-17T18:55:33.244Z,51.12
2023-03-17T18:58:01.442Z,51.78
2023-03-17T19:00:29.872Z,53.79
2023-03-17T19:02:57.936Z,53.10
2023-03-17T19:05:25.997Z,53.30
2023-03-17T19:07:53.996Z,53.43
2023-03-17T19:10:21.847Z,53.75
2023-03-17T19:12:50.645Z,54.03
2023-03-17T19:15:19.595Z,54.63
2023-03-17T19:17:47.596Z,55.49
2023-03-17T19:20:15.937Z,55.34
2023-03-17T19:22:43.424Z,55.62
2023-03-17T19:25:11.452Z,56.24
2023-03-17T19:27:40.033Z,57.01
2023-03-17T19:30:08.908Z,58.45
2023-03-17T19:32:37.271Z,58.47
2023-03-17T19:35:07.555Z,58.97
2023-03-17T19:37:36.095Z,59.36
2023-03-17T19:40:06.210Z,59.51
2023-03-17T19:42:35.164Z,58.73
2023-03-17T19:45:03.804Z,58.59
2023-03-17T19:47:31.618Z,58.72
2023-03-17T19:49:59.585Z,58.42
2023-03-17T19:52:27.433Z,58.39
2023-03-17T19:54:56.416Z,59.40
2023-03-17T19:57:24.631Z,60.26
2023-03-17T19:59:52.178Z,61.53
2023-03-17T20:02:20.666Z,61.69
2023-03-17T20:04:49.574Z,61.40
2023-03-17T20:07:17.390Z,60.68
2023-03-17T20:09:48.003Z,60.55
2023-03-17T20:12:16.118Z,61.40
2023-03-17T20:14:44.087Z,61.00
2023-03-17T20:17:12.235Z,60.66
2023-03-17T20:19:40.536Z,60.71
2023-03-17T20:22:08.827Z,61.26
2023-03-17T20:24:36.421Z,63.51
2023-03-17T20:27:05.216Z,62.75
2023-03-17T20:29:33.480Z,63.48
2023-03-17T20:32:02.165Z,62.84
2023-03-17T20:34:31.843Z,62.83
2023-03-17T20:36:59.395Z,63.14
2023-03-17T20:39:27.272Z,65.70
2023-03-17T20:41:55.677Z,64.32
2023-03-17T20:44:24.071Z,64.23
2023-03-17T20:46:53.091Z,63.89
2023-03-17T20:49:21.173Z,65.47
2023-03-17T20:51:48.989Z,64.50
2023-03-17T20:54:17.999Z,64.35
2023-03-17T20:56:45.900Z,64.56
2023-03-17T20:59:13.652Z,64.84
2023-03-17T21:01:42.690Z,66.07
2023-03-17T21:04:12.644Z,65.40
2023-03-17T21:06:41.564Z,67.80
2023-03-17T21:09:10.136Z,66.01
2023-03-17T21:11:38.279Z,65.96
2023-03-17T21:14:09.388Z,66.30
2023-03-17T21:16:37.295Z,66.91
2023-03-17T21:19:09.684Z,67.57
2023-03-17T21:21:37.712Z,67.41
2023-03-17T21:24:07.102Z,67.76
2023-03-17T21:26:35.330Z,67.85
2023-03-17T21:29:03.161Z,68.51
2023-03-17T21:31:31.409Z,68.25
2023-03-17T21:33:59.302Z,68.24
2023-03-17T21:36:27.442Z,69.82
2023-03-17T21:38:55.239Z,68.98
2023-03-17T21:41:34.199Z,69.06
2023-03-17T21:44:03.317Z,69.57
2023-03-17T21:46:31.761Z,71.10
2023-03-17T21:49:00.454Z,71.96
2023-03-17T21:51:28.781Z,72.08
2023-03-17T21:53:57.802Z,72.25
2023-03-17T21:56:25.410Z,72.17
2023-03-17T21:58:53.615Z,72.14
2023-03-17T22:01:24.383Z,72.08
2023-03-17T22:03:52.524Z,71.84
2023-03-17T22:06:20.768Z,70.89
2023-03-17T22:08:48.899Z,70.44
2023-03-17T22:11:18.781Z,71.41
2023-03-17T22:13:46.937Z,71.42
2023-03-17T22:16:15.959Z,71.25
2023-03-17T22:18:44.229Z,71.56
2023-03-17T22:21:11.826Z,72.41
2023-03-17T22:23:42.675Z,72.58
2023-03-17T22:26:18.961Z,71.81
2023-03-17T22:28:47.726Z,72.21
2023-03-17T22:31:18.437Z,72.36
2023-03-17T22:33:48.457Z,72.69
2023-03-17T22:36:17.948Z,71.87
2023-03-17T22:38:46.086Z,70.93
2023-03-17T22:41:16.633Z,70.54
2023-03-17T22:43:45.044Z,70.16
2023-03-17T22:46:13.864Z,70.16
2023-03-17T22:48:41.538Z,70.35
2023-03-17T22:51:17.340Z,70.06
2023-03-17T22:53:45.569Z,70.20
2023-03-17T22:56:14.855Z,70.62
2023-03-17T22:58:43.384Z,70.14
2023-03-17T23:01:12.517Z,69.58
2023-03-17T23:03:40.767Z,70.44
2023-03-17T23:06:09.007Z,70.61
2023-03-17T23:08:38.519Z,70.98
2023-03-17T23:11:08.807Z,69.94
2023-03-17T23:13:37.464Z,69.61
2023-03-17T23:16:06.404Z,69.93
2023-03-17T23:18:34.708Z,70.94
2023-03-17T23:21:03.439Z,70.18
2023-03-17T23:23:31.372Z,69.89
2023-03-17T23:25:59.382Z,69.85
2023-03-17T23:28:27.311Z,70.22
2023-03-17T23:30:55.369Z,70.46
2023-03-17T23:33:25.572Z,70.73
2023-03-17T23:35:53.329Z,72.08
2023-03-17T23:38:21.525Z,72.15
2023-03-17T23:40:49.626Z,71.83
2023-03-17T23:43:17.508Z,73.57
2023-03-17T23:45:45.510Z,73.85
2023-03-17T23:48:13.670Z,72.63
2023-03-17T23:50:42.425Z,72.37
2023-03-17T23:53:11.590Z,72.03
2023-03-17T23:55:40.160Z,71.81
2023-03-17T23:58:07.954Z,71.77
